Terminal Aerodrome Forecast
Issued by NWS Bismarck, ND

Home | Current Version | Previous Version | Graphics & Text | Print | Product List | Glossary On
Versions: 1 2 3 4 5 6 7 8 9 10 11 12 13 14 15 16
000
FTUS43 KBIS 250726 AAA
TAFBIS
TAF AMD
KBIS 250726Z 2507/2606 28010G17KT P6SM SCT025 OVC035
      TEMPO 2507/2511 BKN025
     FM251500 31009KT P6SM BKN035
     FM251700 31010G16KT P6SM BKN045
     FM260100 25006KT P6SM SCT050=

USA.gov is the U.S. government's official web portal to all federal, state and local government web resources and services.